createdAt,value
2023-02-17T00:00:19.384Z,61.83
2023-02-17T00:00:51.177Z,79.33
2023-02-17T00:01:26.557Z,82.50
2023-02-17T00:01:58.408Z,77.80
2023-02-17T00:02:30.308Z,87.70
2023-02-17T00:03:02.199Z,96.70
2023-02-17T00:03:34.051Z,102.17
2023-02-17T00:04:06.189Z,102.53
2023-02-17T00:04:38.003Z,106.63
2023-02-17T00:05:10.310Z,108.07
2023-02-17T00:05:42.162Z,106.40
2023-02-17T00:06:15.904Z,108.70
2023-02-17T00:06:47.739Z,104.30
2023-02-17T00:07:20.007Z,107.70
2023-02-17T00:07:51.773Z,110.00
2023-02-17T00:08:23.710Z,107.30
2023-02-17T00:08:56.780Z,105.03
2023-02-17T00:09:28.683Z,105.43
2023-02-17T00:10:01.126Z,106.27
2023-02-17T00:10:33.006Z,105.33
2023-02-17T00:11:05.342Z,102.63
2023-02-17T00:11:37.188Z,96.13
2023-02-17T00:12:09.064Z,94.80
2023-02-17T00:12:40.874Z,94.60
2023-02-17T00:13:12.609Z,101.13
2023-02-17T00:13:44.982Z,104.47
2023-02-17T00:14:16.958Z,111.10
2023-02-17T00:14:48.742Z,112.87
2023-02-17T00:15:20.571Z,111.80
2023-02-17T00:15:52.798Z,110.37
2023-02-17T00:16:27.260Z,106.17
2023-02-17T00:16:59.026Z,94.70
2023-02-17T00:17:30.890Z,93.80
2023-02-17T00:18:02.667Z,102.47
2023-02-17T00:18:34.780Z,100.57
2023-02-17T00:19:24.990Z,96.07
2023-02-17T00:19:57.061Z,88.67
2023-02-17T00:20:30.543Z,88.30
2023-02-17T00:21:18.523Z,88.80
2023-02-17T00:21:56.746Z,91.67
2023-02-17T00:22:28.535Z,92.97
2023-02-17T00:23:00.356Z,92.27
2023-02-17T00:23:32.168Z,91.90
2023-02-17T00:24:04.247Z,95.63
2023-02-17T00:24:39.622Z,96.17
2023-02-17T00:25:11.435Z,96.23
2023-02-17T00:25:43.824Z,92.93
2023-02-17T00:26:17.138Z,93.67
2023-02-17T00:26:49.671Z,94.33
2023-02-17T00:27:21.550Z,97.13
2023-02-17T00:27:53.438Z,98.67
2023-02-17T00:28:25.361Z,97.93
2023-02-17T00:28:58.998Z,96.63
2023-02-17T00:29:31.054Z,96.47
2023-02-17T00:30:02.973Z,96.10
2023-02-17T00:30:34.914Z,95.43
2023-02-17T00:31:08.899Z,96.93
2023-02-17T00:31:41.033Z,101.30
2023-02-17T00:32:13.253Z,101.17
2023-02-17T00:32:45.206Z,100.17
2023-02-17T00:33:17.016Z,97.23
2023-02-17T00:33:49.780Z,99.57
2023-02-17T00:34:22.303Z,99.53
2023-02-17T00:34:56.562Z,99.90
2023-02-17T00:35:28.428Z,95.10
2023-02-17T00:36:04.294Z,93.77
2023-02-17T00:36:37.028Z,89.67
2023-02-17T00:37:08.862Z,88.93
2023-02-17T00:37:40.636Z,86.53
2023-02-17T00:38:12.452Z,86.77
2023-02-17T00:38:45.429Z,85.83
2023-02-17T00:39:18.147Z,85.87
2023-02-17T00:39:49.984Z,85.50
2023-02-17T00:40:21.815Z,84.50
2023-02-17T00:40:53.577Z,83.37
2023-02-17T00:41:28.025Z,83.57
2023-02-17T00:42:00.033Z,83.93
2023-02-17T00:42:31.816Z,84.67
2023-02-17T00:43:03.589Z,82.90
2023-02-17T00:43:35.726Z,78.83
2023-02-17T00:44:07.975Z,80.00
2023-02-17T00:44:41.502Z,83.43
2023-02-17T00:45:13.296Z,84.73
2023-02-17T00:45:45.134Z,83.63
2023-02-17T00:46:18.216Z,81.73
2023-02-17T00:46:50.809Z,80.47
2023-02-17T00:47:22.684Z,80.07
2023-02-17T00:47:54.549Z,78.70
2023-02-17T00:48:26.534Z,78.13
2023-02-17T00:48:58.521Z,80.37
2023-02-17T00:49:30.351Z,80.83
2023-02-17T00:50:02.150Z,77.70
2023-02-17T00:50:33.969Z,77.37
2023-02-17T00:51:06.461Z,79.90
2023-02-17T00:51:38.232Z,78.67
2023-02-17T00:52:10.058Z,76.80
2023-02-17T00:52:41.944Z,78.37
2023-02-17T00:53:13.820Z,76.20
2023-02-17T00:53:46.445Z,75.63
2023-02-17T00:54:19.005Z,77.63
2023-02-17T00:54:50.815Z,76.23
2023-02-17T00:55:22.618Z,75.43
2023-02-17T00:55:54.568Z,74.40
2023-02-17T00:56:26.307Z,70.83
2023-02-17T00:56:58.949Z,70.33
2023-02-17T00:57:32.519Z,72.90
2023-02-17T00:58:04.422Z,72.70
2023-02-17T00:58:36.972Z,74.73
2023-02-17T00:59:10.123Z,76.43
2023-02-17T00:59:41.888Z,72.60
2023-02-17T01:00:14.258Z,70.60
2023-02-17T01:00:46.022Z,68.83
2023-02-17T01:01:17.863Z,70.33
2023-02-17T01:01:49.752Z,70.63
2023-02-17T01:02:21.634Z,71.23
2023-02-17T01:02:53.454Z,70.37
2023-02-17T01:03:26.269Z,70.67
2023-02-17T01:03:58.189Z,72.47
2023-02-17T01:04:29.993Z,73.77
2023-02-17T01:05:01.896Z,72.47
2023-02-17T01:05:34.028Z,72.83
2023-02-17T01:06:09.161Z,75.53
2023-02-17T01:06:41.614Z,74.33
2023-02-17T01:07:13.494Z,72.77
2023-02-17T01:07:45.419Z,74.83
2023-02-17T01:08:18.268Z,75.57
2023-02-17T01:09:09.270Z,70.70
2023-02-17T01:09:41.052Z,72.33
2023-02-17T01:10:13.027Z,70.80
2023-02-17T01:10:47.279Z,71.17
2023-02-17T01:11:25.515Z,71.23
2023-02-17T01:11:57.361Z,67.63
2023-02-17T01:12:29.252Z,66.57
2023-02-17T01:13:01.074Z,66.33
2023-02-17T01:13:32.876Z,69.67
2023-02-17T01:14:08.944Z,71.23
2023-02-17T01:14:40.756Z,71.10
2023-02-17T01:15:13.743Z,69.63
2023-02-17T01:15:49.058Z,66.53
2023-02-17T01:16:24.842Z,65.30
2023-02-17T01:16:57.169Z,70.03
2023-02-17T01:17:28.960Z,68.80
2023-02-17T01:18:01.018Z,69.27
2023-02-17T01:18:33.007Z,68.57
2023-02-17T01:19:12.200Z,72.07
2023-02-17T01:19:44.106Z,70.77
2023-02-17T01:20:16.052Z,73.50
2023-02-17T01:20:47.917Z,74.73
2023-02-17T01:21:25.902Z,75.17
2023-02-17T01:21:57.743Z,74.30
2023-02-17T01:22:29.879Z,73.67
2023-02-17T01:23:02.291Z,72.60
2023-02-17T01:23:34.078Z,71.50
2023-02-17T01:24:08.066Z,70.63
2023-02-17T01:24:40.428Z,70.60
2023-02-17T01:25:46.633Z,67.57
2023-02-17T01:26:21.628Z,71.50
2023-02-17T01:26:53.496Z,70.53
2023-02-17T01:27:25.266Z,69.40
2023-02-17T01:27:57.222Z,69.63
2023-02-17T01:28:29.286Z,71.13
2023-02-17T01:29:01.614Z,70.43
2023-02-17T01:29:33.379Z,71.30
2023-02-17T01:30:06.125Z,71.27
2023-02-17T01:30:37.954Z,69.03
2023-02-17T01:31:11.489Z,69.60
2023-02-17T01:31:43.667Z,67.73
2023-02-17T01:32:15.510Z,70.53
2023-02-17T01:32:47.304Z,70.47
2023-02-17T01:33:19.170Z,69.97
2023-02-17T01:33:51.129Z,70.97
2023-02-17T01:34:23.103Z,72.20
2023-02-17T01:34:55.470Z,71.80
2023-02-17T01:35:27.306Z,72.03
2023-02-17T01:36:05.874Z,68.03
2023-02-17T01:36:37.831Z,68.03
2023-02-17T01:37:09.672Z,69.23
2023-02-17T01:37:41.464Z,74.33
2023-02-17T01:38:13.669Z,73.77
2023-02-17T01:38:47.755Z,70.53
2023-02-17T01:39:19.816Z,68.97
2023-02-17T01:39:51.591Z,69.30
2023-02-17T01:40:23.582Z,69.17
2023-02-17T01:40:55.972Z,67.83
2023-02-17T01:41:28.724Z,66.70
2023-02-17T01:42:00.525Z,69.23
2023-02-17T01:42:32.525Z,72.57
2023-02-17T01:43:04.544Z,70.17
2023-02-17T01:43:37.036Z,70.97
2023-02-17T01:44:18.122Z,69.50
2023-02-17T01:45:28.077Z,69.47
2023-02-17T01:46:02.252Z,71.57
2023-02-17T01:46:35.937Z,72.33
2023-02-17T01:47:13.133Z,71.33
2023-02-17T01:48:21.552Z,70.57
2023-02-17T01:48:53.739Z,71.07
2023-02-17T01:49:38.636Z,72.33
2023-02-17T01:50:11.326Z,72.70
2023-02-17T01:50:52.819Z,70.40
2023-02-17T01:51:28.750Z,71.80
2023-02-17T01:52:06.036Z,71.23
2023-02-17T01:52:40.038Z,72.23
2023-02-17T01:53:18.163Z,73.33
2023-02-17T01:54:13.541Z,75.00
2023-02-17T01:54:52.786Z,70.47
2023-02-17T01:55:26.904Z,71.57
2023-02-17T01:55:58.837Z,74.47
2023-02-17T01:56:33.135Z,75.57
2023-02-17T01:57:05.602Z,74.73
2023-02-17T01:57:41.840Z,74.40
2023-02-17T01:58:19.298Z,75.40
2023-02-17T01:59:00.744Z,77.40
2023-02-17T01:59:33.080Z,73.33
2023-02-17T02:00:09.810Z,74.37
2023-02-17T02:00:41.860Z,72.83
2023-02-17T02:01:13.739Z,74.17
2023-02-17T02:01:47.675Z,72.47
2023-02-17T02:02:20.313Z,75.40
2023-02-17T02:02:52.519Z,76.47
2023-02-17T02:03:25.101Z,73.23
2023-02-17T02:03:59.419Z,73.17
2023-02-17T02:04:36.341Z,78.47
2023-02-17T02:05:09.855Z,78.93
2023-02-17T02:05:42.352Z,75.10
2023-02-17T02:06:19.079Z,75.10
2023-02-17T02:06:50.828Z,75.90
2023-02-17T02:07:49.833Z,75.80
2023-02-17T02:08:21.687Z,77.00
2023-02-17T02:09:06.616Z,77.17
2023-02-17T02:09:50.755Z,77.77
2023-02-17T02:10:23.425Z,78.90
2023-02-17T02:10:55.309Z,78.43
2023-02-17T02:11:27.206Z,79.37
2023-02-17T02:12:00.818Z,82.10
2023-02-17T02:12:38.628Z,76.67
2023-02-17T02:13:10.765Z,76.80
2023-02-17T02:13:43.454Z,75.67
2023-02-17T02:14:16.775Z,77.90
2023-02-17T02:14:50.453Z,78.87
2023-02-17T02:15:25.988Z,79.03
2023-02-17T02:16:09.616Z,79.23
2023-02-17T02:16:56.020Z,78.63
2023-02-17T02:17:52.692Z,80.33
2023-02-17T02:19:03.030Z,77.87
2023-02-17T02:19:59.168Z,79.43
2023-02-17T02:20:45.842Z,77.00
2023-02-17T02:22:09.288Z,79.43
2023-02-17T02:23:38.065Z,82.93
2023-02-17T02:24:33.131Z,81.50
2023-02-17T02:25:35.459Z,84.83
2023-02-17T02:26:44.953Z,82.43
2023-02-17T02:27:50.186Z,81.87
2023-02-17T02:28:57.526Z,85.77
2023-02-17T02:30:11.537Z,85.67
2023-02-17T02:31:03.953Z,79.30
2023-02-17T02:32:06.331Z,82.10
2023-02-17T03:09:07.683Z,74.40
2023-02-17T03:09:39.828Z,76.80
2023-02-17T03:10:12.060Z,75.53
2023-02-17T03:10:53.028Z,74.43
2023-02-17T03:11:35.148Z,72.17
2023-02-17T03:12:07.595Z,74.03
2023-02-17T03:12:40.130Z,73.77
2023-02-17T03:13:12.327Z,77.93
2023-02-17T03:13:44.291Z,76.40
2023-02-17T03:14:19.867Z,76.30
2023-02-17T03:15:00.741Z,75.40
2023-02-17T03:15:35.451Z,71.33
2023-02-17T03:16:08.795Z,73.03
2023-02-17T03:16:44.990Z,74.17
2023-02-17T03:17:17.760Z,73.60
2023-02-17T03:17:50.229Z,73.47
2023-02-17T03:18:22.324Z,70.77
2023-02-17T03:18:54.465Z,72.07
2023-02-17T03:19:26.631Z,73.13
2023-02-17T03:20:04.829Z,74.03
2023-02-17T03:20:42.610Z,73.93
2023-02-17T03:21:16.739Z,71.87
2023-02-17T03:21:57.504Z,72.67
2023-02-17T03:22:35.746Z,76.30
2023-02-17T03:23:08.287Z,73.80
2023-02-17T03:23:40.329Z,75.13
2023-02-17T03:24:12.378Z,73.87
2023-02-17T03:24:44.275Z,73.70
2023-02-17T03:25:16.932Z,70.90
2023-02-17T03:25:48.989Z,73.47
2023-02-17T03:26:21.002Z,73.37
2023-02-17T03:26:52.930Z,72.97
2023-02-17T03:27:24.920Z,72.50
2023-02-17T03:27:56.940Z,74.57
2023-02-17T03:28:30.674Z,76.40
2023-02-17T03:29:02.553Z,75.63
2023-02-17T03:29:34.830Z,72.40
2023-02-17T03:30:07.815Z,71.27
2023-02-17T03:30:39.994Z,73.53
2023-02-17T03:31:45.048Z,72.27
2023-02-17T03:32:17.059Z,75.17
2023-02-17T03:32:49.424Z,78.13
2023-02-17T03:33:21.449Z,74.77
2023-02-17T03:33:53.515Z,71.17
2023-02-17T03:34:25.725Z,73.13
2023-02-17T03:34:57.731Z,74.40
2023-02-17T03:35:29.890Z,74.23
2023-02-17T03:36:01.733Z,75.60
2023-02-17T03:36:33.662Z,77.63
2023-02-17T03:37:06.144Z,72.13
2023-02-17T03:37:38.268Z,69.73
2023-02-17T03:38:10.477Z,71.87
2023-02-17T03:38:42.283Z,74.30
2023-02-17T03:39:14.270Z,71.83
2023-02-17T03:39:46.420Z,71.97
2023-02-17T03:40:18.385Z,71.30
2023-02-17T03:40:50.349Z,75.27
2023-02-17T03:41:22.603Z,72.03
2023-02-17T03:41:54.489Z,68.67
2023-02-17T03:42:26.767Z,70.93
2023-02-17T03:42:58.966Z,72.80
2023-02-17T03:43:30.861Z,72.80
2023-02-17T03:44:02.791Z,72.57
2023-02-17T03:44:34.818Z,74.77
2023-02-17T03:45:06.972Z,72.50
2023-02-17T03:45:38.917Z,67.37
2023-02-17T03:46:12.801Z,68.60
2023-02-17T03:46:45.499Z,72.33
2023-02-17T03:47:17.510Z,71.27
2023-02-17T03:47:49.392Z,71.20
2023-02-17T03:48:21.419Z,70.27
2023-02-17T03:48:53.364Z,70.37
2023-02-17T03:49:25.376Z,72.17
2023-02-17T03:49:57.483Z,72.37
2023-02-17T03:50:29.444Z,75.10
2023-02-17T03:51:36.640Z,74.13
2023-02-17T03:52:08.681Z,71.80
2023-02-17T03:52:40.707Z,72.43
2023-02-17T03:53:12.651Z,74.70
2023-02-17T03:53:45.699Z,72.87
2023-02-17T03:54:17.884Z,73.17
2023-02-17T03:54:49.809Z,72.83
2023-02-17T03:55:22.040Z,75.17
2023-02-17T03:55:54.006Z,73.13
2023-02-17T03:56:25.968Z,71.27
2023-02-17T03:56:59.274Z,71.53
2023-02-17T03:57:32.043Z,69.40
2023-02-17T03:58:04.645Z,69.47
2023-02-17T03:58:36.909Z,71.07
2023-02-17T03:59:09.148Z,71.67
2023-02-17T03:59:41.168Z,71.30
2023-02-17T04:00:15.134Z,73.90
2023-02-17T04:00:47.134Z,71.07
2023-02-17T04:01:19.652Z,71.03
2023-02-17T04:01:51.855Z,73.10
2023-02-17T04:02:25.321Z,73.27
2023-02-17T04:02:57.471Z,71.20
2023-02-17T04:03:29.717Z,69.73
2023-02-17T04:04:01.700Z,71.93
2023-02-17T04:04:33.835Z,70.47
2023-02-17T04:05:06.244Z,69.77
2023-02-17T04:05:37.878Z,71.80
2023-02-17T04:07:26.877Z,67.00
2023-02-17T04:08:31.896Z,69.47
2023-02-17T04:09:04.109Z,71.30
2023-02-17T04:09:36.225Z,72.10
2023-02-17T04:10:09.821Z,70.57
2023-02-17T04:10:41.822Z,68.10
2023-02-17T04:11:47.832Z,73.80
2023-02-17T04:12:19.788Z,70.87
2023-02-17T04:12:51.687Z,69.77
2023-02-17T04:13:24.319Z,73.40
2023-02-17T04:13:56.261Z,72.37
2023-02-17T04:14:28.196Z,71.27
2023-02-17T04:15:00.112Z,76.47
2023-02-17T04:15:35.037Z,76.73
2023-02-17T04:16:09.821Z,76.70
2023-02-17T04:17:14.802Z,75.13
2023-02-17T04:17:46.751Z,73.17
2023-02-17T04:18:51.618Z,75.57
2023-02-17T04:19:23.793Z,76.10
2023-02-17T04:19:55.661Z,74.03
2023-02-17T04:21:01.724Z,74.70
2023-02-17T04:21:34.728Z,75.97
2023-02-17T04:22:09.070Z,77.67
2023-02-17T04:22:40.946Z,76.73
2023-02-17T04:23:14.784Z,72.53
2023-02-17T04:23:46.771Z,72.50
2023-02-17T04:24:19.007Z,75.30
2023-02-17T04:24:50.908Z,76.80
2023-02-17T04:25:24.476Z,75.47
2023-02-17T04:25:56.378Z,80.67
2023-02-17T04:26:29.335Z,78.00
2023-02-17T04:27:01.283Z,74.47
2023-02-17T04:27:33.177Z,74.33
2023-02-17T04:28:06.540Z,74.30
2023-02-17T04:28:40.137Z,77.37
2023-02-17T04:29:12.261Z,74.77
2023-02-17T04:30:20.625Z,73.97
2023-02-17T04:31:18.260Z,73.93
2023-02-17T04:31:53.632Z,77.03
2023-02-17T04:32:25.713Z,79.10
2023-02-17T04:32:58.354Z,76.83
2023-02-17T04:33:33.600Z,75.93
2023-02-17T04:34:08.641Z,78.93
2023-02-17T04:34:40.682Z,76.30
2023-02-17T04:35:12.810Z,75.77
2023-02-17T04:35:45.119Z,73.77
2023-02-17T04:36:16.929Z,74.20
2023-02-17T04:36:49.165Z,75.70
2023-02-17T04:37:22.315Z,75.23
2023-02-17T04:38:32.647Z,79.43
2023-02-17T04:39:04.591Z,77.40
2023-02-17T04:40:09.939Z,79.97
2023-02-17T04:40:43.408Z,81.90
2023-02-17T04:41:15.342Z,77.47
2023-02-17T04:41:49.767Z,75.30
2023-02-17T04:42:22.773Z,73.90
2023-02-17T04:42:54.614Z,73.03
2023-02-17T04:43:59.487Z,70.37
2023-02-17T04:44:32.786Z,72.37
2023-02-17T04:45:06.456Z,72.77
2023-02-17T04:45:38.672Z,74.27
2023-02-17T04:46:12.105Z,71.87
2023-02-17T04:46:44.022Z,71.47
2023-02-17T04:47:51.566Z,71.03
2023-02-17T04:48:23.988Z,73.10
2023-02-17T04:48:56.467Z,72.47
2023-02-17T04:50:27.581Z,72.17
2023-02-17T04:51:00.376Z,72.97
2023-02-17T04:51:32.511Z,74.87
2023-02-17T04:52:07.947Z,75.80
2023-02-17T04:52:40.194Z,75.77
2023-02-17T04:53:15.242Z,73.80
2023-02-17T04:53:48.456Z,92.30
2023-02-17T04:55:17.757Z,96.33
2023-02-17T04:56:22.956Z,100.67
2023-02-17T04:57:31.946Z,90.23
2023-02-17T04:58:04.907Z,81.27
2023-02-17T04:59:11.717Z,78.33
2023-02-17T04:59:44.374Z,76.37
2023-02-17T05:00:16.486Z,75.80
2023-02-17T05:00:50.689Z,79.63
2023-02-17T05:01:57.815Z,74.57
2023-02-17T05:02:34.296Z,75.80
2023-02-17T05:03:12.392Z,76.40
2023-02-17T05:03:44.436Z,75.70
2023-02-17T05:04:16.468Z,76.43
2023-02-17T05:04:49.312Z,72.77
2023-02-17T05:05:28.661Z,74.40
2023-02-17T05:06:00.544Z,75.73
2023-02-17T05:06:32.809Z,74.30
2023-02-17T05:07:07.109Z,71.20
2023-02-17T05:09:06.442Z,69.33
2023-02-17T05:09:41.542Z,70.53
2023-02-17T05:10:19.409Z,73.33
2023-02-17T05:11:16.172Z,75.97
2023-02-17T05:12:25.789Z,80.90
2023-02-17T05:13:00.228Z,84.27
2023-02-17T05:13:38.524Z,85.47
2023-02-17T05:14:20.600Z,81.50
2023-02-17T05:15:22.336Z,82.37
2023-02-17T05:16:57.191Z,78.67
2023-02-17T05:17:32.412Z,79.17
2023-02-17T05:18:07.167Z,77.47
2023-02-17T05:18:44.118Z,74.73
2023-02-17T05:19:16.162Z,79.07
2023-02-17T05:20:22.299Z,83.43
2023-02-17T05:20:55.610Z,77.77
2023-02-17T05:22:00.888Z,78.40
2023-02-17T05:22:35.785Z,82.03
2023-02-17T05:23:13.906Z,82.13
2023-02-17T05:23:45.802Z,79.40
2023-02-17T05:24:57.915Z,83.43
2023-02-17T05:25:33.641Z,83.00
2023-02-17T05:26:09.401Z,80.77
2023-02-17T05:26:41.497Z,78.47
2023-02-17T05:27:17.800Z,78.20
2023-02-17T05:27:49.652Z,79.43
2023-02-17T05:28:23.829Z,77.37
2023-02-17T05:29:29.890Z,80.40
2023-02-17T05:30:02.151Z,78.83
2023-02-17T05:30:34.104Z,81.47
2023-02-17T05:31:07.208Z,83.40
2023-02-17T05:32:12.394Z,79.87
2023-02-17T05:32:44.536Z,78.67
2023-02-17T05:33:49.210Z,84.77
2023-02-17T05:34:24.521Z,83.40
2023-02-17T05:35:01.056Z,84.83
2023-02-17T05:35:37.640Z,84.73
2023-02-17T05:36:43.393Z,85.63
2023-02-17T05:37:20.155Z,79.17
2023-02-17T05:37:52.134Z,81.77
2023-02-17T05:38:24.168Z,82.97
2023-02-17T05:38:57.032Z,82.33
2023-02-17T05:39:30.001Z,82.43
2023-02-17T05:40:02.139Z,84.10
2023-02-17T05:41:08.769Z,82.00
2023-02-17T05:41:40.713Z,82.90
2023-02-17T05:43:04.785Z,82.23
2023-02-17T05:43:39.354Z,83.73
2023-02-17T05:44:11.590Z,83.30
2023-02-17T05:44:46.852Z,83.83
2023-02-17T05:45:22.630Z,83.70
2023-02-17T05:46:00.172Z,84.73
2023-02-17T05:46:57.823Z,85.53
2023-02-17T05:47:33.985Z,82.23
2023-02-17T05:48:35.231Z,82.47
2023-02-17T05:49:13.074Z,84.50
2023-02-17T05:49:52.516Z,82.47
2023-02-17T05:50:30.898Z,86.40
2023-02-17T05:51:05.604Z,88.90
2023-02-17T05:51:42.552Z,90.50
2023-02-17T05:52:15.046Z,91.33
2023-02-17T05:52:47.023Z,87.20
2023-02-17T05:53:19.160Z,89.43
2023-02-17T05:53:51.907Z,91.17
2023-02-17T05:54:28.090Z,92.87
2023-02-17T05:55:02.837Z,91.60
2023-02-17T05:55:36.269Z,91.57
2023-02-17T05:56:08.946Z,90.77
2023-02-17T05:56:40.936Z,89.60
2023-02-17T05:57:14.001Z,91.20
2023-02-17T05:57:46.617Z,92.87
2023-02-17T05:58:20.204Z,93.93
2023-02-17T05:58:56.410Z,96.73
2023-02-17T05:59:33.670Z,95.87
2023-02-17T06:00:11.314Z,92.13
2023-02-17T06:00:43.283Z,89.97
2023-02-17T06:01:15.641Z,89.30
2023-02-17T06:01:47.864Z,90.87
2023-02-17T06:02:29.470Z,90.83
2023-02-17T06:03:06.585Z,86.70
2023-02-17T06:03:39.360Z,86.77
2023-02-17T06:04:11.298Z,87.33
2023-02-17T06:04:47.904Z,91.27
2023-02-17T06:05:20.373Z,87.67
2023-02-17T06:05:53.229Z,89.43
2023-02-17T06:06:25.719Z,87.30
2023-02-17T06:06:57.660Z,89.63
2023-02-17T06:07:29.557Z,88.20
2023-02-17T06:08:04.110Z,86.90
2023-02-17T06:08:40.790Z,88.87
2023-02-17T06:09:12.629Z,86.67
2023-02-17T06:09:46.428Z,87.03
2023-02-17T06:10:25.132Z,89.00
2023-02-17T06:10:57.621Z,88.83
2023-02-17T06:11:31.125Z,90.63
2023-02-17T06:12:06.979Z,88.93
2023-02-17T06:12:39.358Z,86.40
2023-02-17T06:13:12.382Z,88.60
2023-02-17T06:13:45.841Z,87.83
2023-02-17T06:14:21.662Z,91.03
2023-02-17T06:14:55.995Z,90.07
2023-02-17T06:15:27.844Z,92.10
2023-02-17T06:15:59.990Z,88.47
2023-02-17T06:16:34.732Z,86.33
2023-02-17T06:17:08.949Z,86.83
2023-02-17T06:17:41.121Z,85.97
2023-02-17T06:18:14.018Z,86.20
2023-02-17T06:18:46.290Z,89.27
2023-02-17T06:19:21.300Z,86.40
2023-02-17T06:19:54.592Z,87.33
2023-02-17T06:20:26.439Z,89.20
2023-02-17T06:20:59.643Z,88.63
2023-02-17T06:21:32.133Z,87.27
2023-02-17T06:22:04.003Z,90.67
2023-02-17T06:22:37.946Z,86.77
2023-02-17T06:23:10.097Z,89.83
2023-02-17T06:23:42.885Z,91.23
2023-02-17T06:24:14.976Z,95.40
2023-02-17T06:24:47.214Z,96.37
2023-02-17T06:25:21.453Z,97.70
2023-02-17T06:25:55.029Z,93.93
2023-02-17T06:26:29.117Z,91.70
2023-02-17T06:27:03.347Z,94.33
2023-02-17T06:27:37.156Z,96.37
2023-02-17T06:28:10.527Z,91.70
2023-02-17T06:28:43.955Z,92.77
2023-02-17T06:29:15.905Z,95.90
2023-02-17T06:29:47.796Z,92.70
2023-02-17T06:30:21.177Z,91.83
2023-02-17T06:30:56.612Z,93.07
2023-02-17T06:31:28.656Z,91.90
2023-02-17T06:32:01.540Z,93.10
2023-02-17T06:32:34.781Z,103.47
2023-02-17T06:33:06.959Z,101.23
2023-02-17T06:33:38.863Z,100.53
2023-02-17T06:34:10.781Z,99.07
2023-02-17T06:34:42.790Z,102.50
2023-02-17T06:35:15.138Z,98.83
2023-02-17T06:35:52.088Z,95.83
2023-02-17T06:36:24.446Z,93.03
2023-02-17T06:36:56.990Z,86.33
2023-02-17T06:37:30.121Z,88.00
2023-02-17T06:38:02.097Z,91.27
2023-02-17T06:38:33.959Z,99.23
2023-02-17T06:39:06.303Z,103.53
2023-02-17T06:39:38.532Z,100.57
2023-02-17T06:40:11.399Z,100.83
2023-02-17T06:40:43.978Z,99.67
2023-02-17T06:41:16.065Z,99.80
2023-02-17T06:41:47.977Z,100.83
2023-02-17T06:42:21.109Z,99.43
2023-02-17T06:42:54.749Z,96.83
2023-02-17T06:43:26.715Z,92.37
2023-02-17T06:43:58.653Z,92.70
2023-02-17T06:44:31.674Z,95.37
2023-02-17T06:45:06.274Z,108.60
2023-02-17T06:45:38.344Z,119.07
2023-02-17T06:46:14.246Z,112.47
2023-02-17T06:46:48.744Z,109.33
2023-02-17T06:47:22.898Z,108.40
2023-02-17T06:47:56.387Z,107.37
2023-02-17T06:48:28.556Z,99.23
2023-02-17T06:49:01.980Z,97.37
2023-02-17T06:50:11.661Z,96.50
2023-02-17T06:50:43.968Z,97.43
2023-02-17T06:51:16.398Z,97.40
2023-02-17T06:51:51.865Z,102.40
2023-02-17T06:52:23.785Z,101.07
2023-02-17T06:53:02.130Z,100.63
2023-02-17T06:53:35.713Z,126.90
2023-02-17T06:54:07.717Z,134.90
2023-02-17T06:54:42.191Z,136.90
2023-02-17T06:55:16.330Z,144.43
2023-02-17T06:55:48.116Z,148.53
2023-02-17T06:56:22.547Z,131.23
2023-02-17T06:56:54.484Z,129.83
2023-02-17T06:57:26.468Z,119.50
2023-02-17T06:57:58.527Z,110.33
2023-02-17T06:58:31.604Z,103.93
2023-02-17T06:59:04.070Z,108.17
2023-02-17T06:59:36.209Z,110.43
2023-02-17T07:00:08.986Z,128.47
2023-02-17T07:00:40.896Z,125.83
2023-02-17T07:01:22.049Z,112.13
2023-02-17T07:01:54.374Z,112.23
2023-02-17T07:02:28.165Z,112.57
2023-02-17T07:03:00.443Z,111.20
2023-02-17T07:03:33.131Z,109.17
2023-02-17T07:04:06.763Z,106.93
2023-02-17T07:04:40.032Z,106.80
2023-02-17T07:05:12.195Z,104.20
2023-02-17T07:05:44.223Z,104.93
2023-02-17T07:06:16.081Z,104.23
2023-02-17T07:06:48.467Z,105.07
2023-02-17T07:07:20.551Z,102.30
2023-02-17T07:07:53.806Z,103.63
2023-02-17T07:08:26.565Z,104.40
2023-02-17T07:08:58.545Z,104.80
2023-02-17T07:09:31.211Z,103.87
2023-02-17T07:10:06.280Z,104.33
2023-02-17T07:10:39.792Z,99.73
2023-02-17T07:11:14.797Z,104.17
2023-02-17T07:11:46.895Z,102.03
2023-02-17T07:12:22.101Z,102.60
2023-02-17T07:12:57.021Z,102.47
2023-02-17T07:13:38.649Z,103.90
2023-02-17T07:14:13.856Z,101.43
2023-02-17T07:14:46.439Z,100.20
2023-02-17T07:15:19.353Z,99.83
2023-02-17T07:15:51.272Z,100.90
2023-02-17T07:16:23.182Z,104.53
2023-02-17T07:16:55.624Z,103.50
2023-02-17T07:17:27.547Z,99.80
2023-02-17T07:18:01.094Z,100.00
2023-02-17T07:18:34.009Z,99.47
2023-02-17T07:19:05.932Z,100.23
2023-02-17T07:19:37.839Z,100.30
2023-02-17T07:20:10.546Z,102.97
2023-02-17T07:20:42.327Z,99.93
2023-02-17T07:21:14.157Z,99.53
2023-02-17T07:21:46.736Z,101.90
2023-02-17T07:22:21.936Z,100.07
2023-02-17T07:22:56.041Z,97.13
2023-02-17T07:23:27.885Z,97.60
2023-02-17T07:24:00.363Z,94.27
2023-02-17T07:24:34.080Z,98.03
2023-02-17T07:25:07.754Z,101.23
2023-02-17T07:25:41.203Z,101.33
2023-02-17T07:26:14.144Z,98.90
2023-02-17T07:26:45.987Z,101.87
2023-02-17T07:27:20.191Z,98.27
2023-02-17T07:27:52.524Z,101.73
2023-02-17T07:28:24.690Z,101.27
2023-02-17T07:28:56.628Z,101.33
2023-02-17T07:29:28.655Z,101.40
2023-02-17T07:30:00.675Z,102.30
2023-02-17T07:30:36.030Z,104.27
2023-02-17T07:31:13.057Z,100.43
2023-02-17T07:31:45.552Z,98.67
2023-02-17T07:32:17.702Z,101.47
2023-02-17T07:32:56.512Z,101.23
2023-02-17T07:33:29.941Z,96.67
2023-02-17T07:34:03.735Z,100.17
2023-02-17T07:34:35.631Z,106.03
2023-02-17T07:35:07.813Z,112.53
2023-02-17T07:35:46.509Z,110.07
2023-02-17T07:36:18.580Z,106.47
2023-02-17T07:36:50.445Z,102.70
2023-02-17T07:37:22.830Z,104.07
2023-02-17T07:37:57.985Z,100.20
2023-02-17T07:38:33.191Z,95.63
2023-02-17T07:39:05.380Z,96.87
2023-02-17T07:39:39.524Z,94.97
2023-02-17T07:40:11.955Z,92.90
2023-02-17T07:40:43.929Z,89.77
2023-02-17T07:41:20.025Z,86.87
2023-02-17T07:41:52.080Z,85.33
2023-02-17T07:42:24.620Z,81.63
2023-02-17T07:42:57.592Z,80.33
2023-02-17T07:43:29.451Z,77.77
2023-02-17T07:44:01.438Z,78.67
2023-02-17T07:44:33.685Z,80.53
2023-02-17T07:45:07.351Z,81.00
2023-02-17T07:45:40.685Z,80.23
2023-02-17T07:46:13.161Z,79.20
2023-02-17T07:46:45.233Z,81.63
2023-02-17T07:47:18.217Z,83.27
2023-02-17T07:47:50.090Z,81.47
2023-02-17T07:48:22.230Z,79.97
2023-02-17T07:48:56.429Z,78.13
2023-02-17T07:49:28.443Z,79.40
2023-02-17T07:50:03.537Z,77.40
2023-02-17T07:50:37.004Z,76.83
2023-02-17T07:51:13.295Z,75.53
2023-02-17T07:51:46.374Z,76.23
2023-02-17T07:52:19.843Z,76.83
2023-02-17T07:52:51.771Z,74.87
2023-02-17T07:53:23.902Z,71.33
2023-02-17T07:53:56.158Z,70.60
2023-02-17T07:54:29.565Z,70.57
2023-02-17T07:55:01.812Z,73.87
2023-02-17T07:55:36.681Z,72.03
2023-02-17T07:56:11.872Z,71.60
2023-02-17T07:56:46.323Z,76.47
2023-02-17T07:57:18.332Z,70.83
2023-02-17T07:57:50.152Z,71.40
2023-02-17T07:58:22.041Z,68.13
2023-02-17T07:58:53.948Z,66.60
2023-02-17T07:59:28.464Z,68.27
2023-02-17T08:00:01.917Z,72.27
2023-02-17T08:00:33.974Z,64.67
2023-02-17T08:01:07.424Z,64.00
2023-02-17T08:01:39.824Z,61.50
2023-02-17T08:02:12.663Z,63.23
2023-02-17T08:02:45.039Z,60.43
2023-02-17T08:03:17.083Z,59.70
2023-02-17T08:03:49.677Z,60.97
2023-02-17T08:04:31.160Z,59.87
2023-02-17T08:05:03.187Z,58.57
2023-02-17T08:05:35.085Z,58.27
2023-02-17T08:06:12.443Z,58.83
2023-02-17T08:06:44.500Z,56.10
2023-02-17T08:07:16.338Z,55.43
2023-02-17T08:07:48.469Z,53.43
2023-02-17T08:08:40.111Z,54.73
2023-02-17T08:09:35.073Z,54.80
2023-02-17T08:10:26.722Z,62.10
2023-02-17T08:11:20.608Z,61.70
2023-02-17T08:12:11.524Z,61.60
2023-02-17T08:13:02.193Z,60.13
2023-02-17T08:13:35.600Z,56.60
2023-02-17T08:14:07.792Z,56.87
2023-02-17T08:14:39.799Z,53.43
2023-02-17T08:15:13.598Z,54.83
2023-02-17T08:15:45.533Z,51.93
2023-02-17T08:16:17.521Z,52.50
2023-02-17T08:16:52.561Z,52.30
2023-02-17T08:17:24.771Z,52.03
2023-02-17T08:17:56.726Z,50.57
2023-02-17T08:18:30.633Z,50.77
2023-02-17T08:19:05.685Z,47.27